Time;durP1;ratioP1;P1;durP2;ratioP2;P2;SDS_P1;SDS_P2;PMS_P1;PMS_P2;Temp;Humidity;BMP_temperature;BMP_pressure;BME280_temperature;BME280_humidity;BME280_pressure;Samples;Min_cycle;Max_cycle;Signal;HPM_P1;HPM_P2
2022/01/27 00:01:15;;;;;;;0.00;0.00;;;;;;;;;;1698640;28;20242;-71
2022/01/27 00:02:22;;;;;;;0.10;0.10;;;;;;;;;;1709591;28;20525;-71
2022/01/27 00:03:23;;;;;;;0.00;0.00;;;;;;;;;;1708831;28;20675;-71
2022/01/27 00:04:18;;;;;;;0.00;0.00;;;;;;;;;;1699464;29;20282;-71
2022/01/27 00:05:17;;;;;;;0.10;0.10;;;;;;;;;;1704754;28;20206;-71
2022/01/27 00:06:11;;;;;;;0.00;0.00;;;;;;;;;;1711270;28;20233;-71
2022/01/27 00:07:03;;;;;;;0.00;0.00;;;;;;;;;;1710251;28;20534;-71
2022/01/27 00:08:09;;;;;;;0.13;0.13;;;;;;;;;;1711738;28;20213;-71
2022/01/27 00:09:11;;;;;;;0.00;0.00;;;;;;;;;;1709894;28;20225;-71
2022/01/27 00:10:13;;;;;;;0.10;0.10;;;;;;;;;;1707334;28;20213;-71
2022/01/27 00:11:10;;;;;;;0.00;0.00;;;;;;;;;;1697964;28;20246;-71
2022/01/27 00:12:02;;;;;;;0.00;0.00;;;;;;;;;;1709077;28;20218;-71
2022/01/27 00:12:55;;;;;;;0.00;0.00;;;;;;;;;;1711743;28;20205;-71
2022/01/27 00:13:48;;;;;;;0.10;0.10;;;;;;;;;;1708602;28;20368;-71
2022/01/27 00:14:52;;;;;;;0.15;0.15;;;;;;;;;;1710722;28;20202;-71
2022/01/27 00:15:45;;;;;;;0.25;0.25;;;;;;;;;;1710063;28;20261;-71
2022/01/27 00:16:41;;;;;;;0.00;0.00;;;;;;;;;;1707776;28;20206;-71
2022/01/27 00:17:32;;;;;;;0.00;0.00;;;;;;;;;;1706828;28;20198;-71
2022/01/27 00:18:25;;;;;;;0.10;0.10;;;;;;;;;;1706349;28;20626;-71
2022/01/27 00:19:16;;;;;;;0.00;0.00;;;;;;;;;;1706750;28;20221;-71
2022/01/27 00:20:09;;;;;;;0.00;0.00;;;;;;;;;;1705904;28;20503;-71
2022/01/27 00:21:00;;;;;;;0.00;0.00;;;;;;;;;;1712249;28;20295;-71
2022/01/27 00:21:53;;;;;;;0.00;0.00;;;;;;;;;;1707612;28;20288;-71
2022/01/27 00:22:45;;;;;;;0.10;0.10;;;;;;;;;;1712611;28;20206;-71
2022/01/27 00:23:37;;;;;;;0.00;0.00;;;;;;;;;;1706734;28;20214;-71
2022/01/27 00:24:28;;;;;;;0.10;0.10;;;;;;;;;;1712923;28;20588;-71
2022/01/27 00:25:20;;;;;;;0.00;0.00;;;;;;;;;;1707284;28;20510;-71
2022/01/27 00:26:12;;;;;;;0.00;0.00;;;;;;;;;;1711215;28;20226;-71
2022/01/27 00:27:04;;;;;;;0.00;0.00;;;;;;;;;;1705896;28;20245;-71
2022/01/27 00:27:56;;;;;;;0.00;0.00;;;;;;;;;;1706571;28;20221;-71
2022/01/27 00:28:49;;;;;;;0.00;0.00;;;;;;;;;;1706053;28;20198;-71
2022/01/27 00:29:40;;;;;;;0.00;0.00;;;;;;;;;;1705975;28;20210;-71
2022/01/27 00:30:32;;;;;;;0.00;0.00;;;;;;;;;;1707931;28;20238;-71
2022/01/27 00:31:23;;;;;;;0.00;0.00;;;;;;;;;;1709193;28;20221;-71
2022/01/27 00:32:16;;;;;;;0.00;0.00;;;;;;;;;;1710778;28;20232;-71
2022/01/27 00:33:08;;;;;;;0.00;0.00;;;;;;;;;;1709399;28;20475;-71
2022/01/27 00:34:04;;;;;;;0.00;0.00;;;;;;;;;;1711258;28;20539;-71
2022/01/27 00:34:55;;;;;;;0.10;0.10;;;;;;;;;;1707993;28;20203;-71
2022/01/27 00:35:47;;;;;;;0.10;0.10;;;;;;;;;;1712370;28;20212;-71
2022/01/27 00:36:38;;;;;;;0.40;0.40;;;;;;;;;;1707773;28;20298;-71
2022/01/27 00:37:32;;;;;;;0.00;0.00;;;;;;;;;;1712581;28;20681;-71
2022/01/27 00:38:24;;;;;;;0.10;0.10;;;;;;;;;;1707623;28;20210;-71
2022/01/27 00:39:16;;;;;;;0.10;0.10;;;;;;;;;;1700010;29;20218;-71
2022/01/27 00:40:10;;;;;;;0.00;0.00;;;;;;;;;;1705293;28;20210;-71
2022/01/27 00:41:03;;;;;;;0.10;0.10;;;;;;;;;;1711499;28;20244;-71
2022/01/27 00:41:54;;;;;;;0.00;0.00;;;;;;;;;;1706865;28;20233;-71
2022/01/27 00:42:46;;;;;;;0.00;0.00;;;;;;;;;;1708800;28;20628;-71
2022/01/27 00:43:37;;;;;;;0.00;0.00;;;;;;;;;;1707537;28;20226;-71
2022/01/27 00:44:29;;;;;;;0.00;0.00;;;;;;;;;;1712393;28;20617;-71
2022/01/27 00:45:23;;;;;;;0.10;0.10;;;;;;;;;;1708767;28;20624;-71
2022/01/27 00:46:16;;;;;;;0.00;0.00;;;;;;;;;;1710304;28;20429;-71
2022/01/27 00:47:08;;;;;;;0.00;0.00;;;;;;;;;;1705438;28;20401;-71
2022/01/27 00:48:03;;;;;;;0.00;0.00;;;;;;;;;;1705699;28;20300;-71
2022/01/27 00:48:54;;;;;;;0.00;0.00;;;;;;;;;;1706484;28;20206;-71
2022/01/27 00:49:47;;;;;;;0.00;0.00;;;;;;;;;;1705984;28;20199;-71
2022/01/27 00:50:40;;;;;;;0.00;0.00;;;;;;;;;;1708486;28;20240;-71
2022/01/27 00:51:36;;;;;;;0.15;0.15;;;;;;;;;;1708872;28;20213;-71
2022/01/27 00:52:34;;;;;;;0.03;0.03;;;;;;;;;;1712152;28;20213;-71
2022/01/27 00:53:38;;;;;;;0.10;0.10;;;;;;;;;;1705725;28;20234;-71
2022/01/27 00:54:29;;;;;;;0.05;0.05;;;;;;;;;;1711983;28;20213;-71
2022/01/27 00:55:23;;;;;;;0.00;0.00;;;;;;;;;;1707234;28;20202;-71
2022/01/27 00:56:23;;;;;;;0.00;0.00;;;;;;;;;;1710591;28;20849;-71
2022/01/27 00:57:28;;;;;;;0.00;0.00;;;;;;;;;;1706261;28;20377;-71
2022/01/27 00:58:34;;;;;;;0.00;0.00;;;;;;;;;;1705433;28;20779;-71
2022/01/27 00:59:35;;;;;;;0.00;0.00;;;;;;;;;;1699042;29;20591;-71
2022/01/27 01:00:31;;;;;;;0.10;0.10;;;;;;;;;;1706912;28;20221;-71
2022/01/27 01:01:29;;;;;;;0.10;0.10;;;;;;;;;;1709276;28;20207;-71
2022/01/27 01:02:31;;;;;;;0.00;0.00;;;;;;;;;;1711171;28;20216;-71
2022/01/27 01:03:29;;;;;;;0.05;0.05;;;;;;;;;;1706953;28;20210;-71
2022/01/27 01:04:27;;;;;;;0.00;0.00;;;;;;;;;;1699778;29;20206;-71
2022/01/27 01:05:26;;;;;;;0.10;0.10;;;;;;;;;;1705086;28;20817;-71
2022/01/27 01:06:25;;;;;;;0.00;0.00;;;;;;;;;;1709592;28;20249;-71
2022/01/27 01:07:19;;;;;;;0.00;0.00;;;;;;;;;;1710506;28;20209;-71
2022/01/27 01:08:46;;;;;;;0.00;0.00;;;;;;;;;;1708789;28;20238;-71
2022/01/27 01:11:24;;;;;;;0.03;0.03;;;;;;;;;;1709640;28;20241;-71
2022/01/27 01:14:48;;;;;;;0.00;0.00;;;;;;;;;;1710219;28;20186;-71
2022/01/27 01:15:42;;;;;;;0.00;0.00;;;;;;;;;;1708641;28;20253;-71
2022/01/27 01:16:47;;;;;;;0.00;0.00;;;;;;;;;;1708253;28;20554;-71
2022/01/27 01:17:49;;;;;;;0.10;0.10;;;;;;;;;;1699257;28;20282;-71
2022/01/27 01:18:49;;;;;;;0.00;0.00;;;;;;;;;;1707762;28;20199;-71
2022/01/27 01:19:59;;;;;;;0.00;0.00;;;;;;;;;;1709475;28;20197;-71
2022/01/27 01:21:20;;;;;;;0.10;0.10;;;;;;;;;;1710366;28;20248;-71
2022/01/27 01:29:25;;;;;;;0.10;0.10;;;;;;;;;;1708899;28;20244;-71
2022/01/27 01:29:53;;;;;;;0.10;0.10;;;;;;;;;;1693431;29;20275;-71
2022/01/27 01:30:49;;;;;;;0.05;0.05;;;;;;;;;;1705749;28;20750;-71
2022/01/27 01:31:51;;;;;;;0.00;0.00;;;;;;;;;;1706613;28;20581;-71
2022/01/27 01:32:48;;;;;;;0.10;0.10;;;;;;;;;;1699796;29;20504;-71
2022/01/27 01:33:42;;;;;;;0.00;0.00;;;;;;;;;;1706865;28;20682;-71
2022/01/27 01:34:33;;;;;;;0.00;0.00;;;;;;;;;;1711345;28;20735;-71
2022/01/27 01:35:28;;;;;;;0.10;0.10;;;;;;;;;;1706434;28;20202;-71
2022/01/27 01:36:34;;;;;;;0.10;0.10;;;;;;;;;;1709061;28;20264;-71
2022/01/27 01:37:26;;;;;;;0.05;0.05;;;;;;;;;;1711550;28;20190;-71
2022/01/27 01:38:19;;;;;;;0.10;0.10;;;;;;;;;;1707858;28;20668;-71
2022/01/27 01:39:12;;;;;;;0.00;0.00;;;;;;;;;;1712087;28;20288;-71
2022/01/27 01:40:05;;;;;;;0.10;0.10;;;;;;;;;;1706319;28;20206;-71
2022/01/27 01:40:58;;;;;;;0.00;0.00;;;;;;;;;;1710466;28;20238;-71
2022/01/27 01:41:49;;;;;;;0.00;0.00;;;;;;;;;;1706847;28;20221;-71
2022/01/27 01:42:41;;;;;;;0.10;0.10;;;;;;;;;;1710099;28;20197;-71
2022/01/27 01:43:33;;;;;;;0.10;0.10;;;;;;;;;;1706192;28;20265;-71
2022/01/27 01:44:25;;;;;;;0.05;0.05;;;;;;;;;;1712439;28;20209;-71
2022/01/27 01:45:18;;;;;;;0.00;0.00;;;;;;;;;;1706045;28;20549;-71
2022/01/27 01:46:10;;;;;;;0.00;0.00;;;;;;;;;;1710521;28;20248;-71
2022/01/27 01:47:01;;;;;;;0.00;0.00;;;;;;;;;;1707667;28;20206;-71
2022/01/27 01:47:54;;;;;;;0.08;0.08;;;;;;;;;;1711260;28;20202;-71
2022/01/27 01:48:45;;;;;;;0.00;0.00;;;;;;;;;;1707851;28;20232;-71
2022/01/27 01:49:38;;;;;;;0.00;0.00;;;;;;;;;;1710096;28;20267;-71
2022/01/27 01:50:29;;;;;;;0.03;0.03;;;;;;;;;;1707172;28;20652;-71
2022/01/27 01:51:25;;;;;;;0.00;0.00;;;;;;;;;;1709910;28;20230;-71
2022/01/27 01:52:16;;;;;;;0.10;0.10;;;;;;;;;;1707774;28;20213;-71
2022/01/27 01:53:08;;;;;;;0.00;0.00;;;;;;;;;;1708048;28;20214;-71
2022/01/27 01:53:59;;;;;;;0.00;0.00;;;;;;;;;;1710709;28;20221;-71
2022/01/27 01:54:51;;;;;;;0.00;0.00;;;;;;;;;;1708912;28;20206;-71
2022/01/27 01:55:44;;;;;;;0.00;0.00;;;;;;;;;;1708855;28;20731;-71
2022/01/27 01:56:37;;;;;;;0.30;0.30;;;;;;;;;;1711334;28;20309;-71
2022/01/27 01:57:28;;;;;;;0.00;0.00;;;;;;;;;;1725051;28;20247;-71
2022/01/27 01:58:20;;;;;;;0.00;0.00;;;;;;;;;;1720624;28;20201;-71
2022/01/27 01:59:12;;;;;;;0.00;0.00;;;;;;;;;;1725471;28;20208;-71
2022/01/27 02:00:03;;;;;;;0.10;0.10;;;;;;;;;;1719739;28;20213;-71
2022/01/27 02:00:56;;;;;;;0.20;0.20;;;;;;;;;;1703960;28;20237;-71
2022/01/27 02:01:47;;;;;;;0.00;0.00;;;;;;;;;;1711382;28;20206;-71
2022/01/27 02:02:39;;;;;;;0.10;0.10;;;;;;;;;;1718868;28;20552;-71
2022/01/27 02:03:30;;;;;;;0.17;0.17;;;;;;;;;;1712720;28;20216;-71
2022/01/27 02:04:23;;;;;;;0.10;0.10;;;;;;;;;;1719134;28;20602;-71
2022/01/27 02:05:14;;;;;;;0.00;0.00;;;;;;;;;;1712128;28;20248;-71
2022/01/27 02:06:07;;;;;;;0.00;0.00;;;;;;;;;;1724762;28;20274;-71
2022/01/27 02:07:02;;;;;;;0.00;0.00;;;;;;;;;;1720183;28;20247;-71
2022/01/27 02:08:12;;;;;;;0.00;0.00;;;;;;;;;;1723779;28;20262;-71
2022/01/27 02:09:22;;;;;;;0.00;0.00;;;;;;;;;;1717537;28;20200;-71
2022/01/27 02:10:30;;;;;;;0.22;0.22;;;;;;;;;;1718409;28;20513;-71
2022/01/27 02:18:24;;;;;;;0.00;0.00;;;;;;;;;;1718345;28;20259;-70
2022/01/27 02:19:15;;;;;;;0.00;0.00;;;;;;;;;;1718500;28;20208;-70
2022/01/27 02:20:11;;;;;;;0.10;0.10;;;;;;;;;;1717931;28;20303;-70
2022/01/27 02:21:02;;;;;;;0.00;0.00;;;;;;;;;;1723527;28;20790;-70
2022/01/27 02:21:55;;;;;;;0.00;0.00;;;;;;;;;;1719538;28;20897;-70
2022/01/27 02:22:46;;;;;;;0.00;0.00;;;;;;;;;;1725218;28;20269;-70
2022/01/27 02:23:39;;;;;;;0.00;0.00;;;;;;;;;;1719197;28;20205;-70
2022/01/27 02:24:31;;;;;;;0.08;0.08;;;;;;;;;;1724505;28;20824;-70
2022/01/27 02:25:23;;;;;;;0.00;0.00;;;;;;;;;;1719459;28;20953;-70
2022/01/27 02:26:15;;;;;;;0.00;0.00;;;;;;;;;;1722462;28;20274;-70
2022/01/27 02:27:07;;;;;;;0.10;0.10;;;;;;;;;;1721720;28;20239;-70
2022/01/27 02:27:58;;;;;;;0.00;0.00;;;;;;;;;;1723016;28;20389;-71
2022/01/27 02:28:51;;;;;;;0.20;0.20;;;;;;;;;;1722548;28;20299;-71
2022/01/27 02:29:44;;;;;;;0.00;0.00;;;;;;;;;;1722122;28;20238;-71
2022/01/27 02:30:36;;;;;;;0.00;0.00;;;;;;;;;;1720585;28;20621;-71
2022/01/27 02:31:27;;;;;;;0.00;0.00;;;;;;;;;;1722220;28;20205;-71
2022/01/27 02:32:22;;;;;;;0.00;0.00;;;;;;;;;;1723282;28;20819;-71
2022/01/27 02:33:13;;;;;;;0.00;0.00;;;;;;;;;;1722120;28;20221;-71
2022/01/27 02:34:06;;;;;;;0.05;0.05;;;;;;;;;;1724396;28;20591;-71
2022/01/27 02:34:59;;;;;;;0.10;0.10;;;;;;;;;;1721602;28;20216;-71
2022/01/27 02:35:52;;;;;;;0.10;0.10;;;;;;;;;;1723422;28;20247;-71
2022/01/27 02:36:44;;;;;;;0.25;0.25;;;;;;;;;;1720862;28;20201;-71
2022/01/27 02:37:35;;;;;;;0.00;0.00;;;;;;;;;;1711765;28;20509;-71
2022/01/27 02:38:28;;;;;;;0.17;0.17;;;;;;;;;;1718509;28;20588;-71
2022/01/27 02:39:19;;;;;;;0.05;0.05;;;;;;;;;;1725696;28;20216;-71
2022/01/27 02:40:13;;;;;;;0.10;0.10;;;;;;;;;;1719209;28;20581;-71
2022/01/27 02:41:04;;;;;;;0.17;0.17;;;;;;;;;;1724897;28;20251;-71
2022/01/27 02:42:01;;;;;;;0.00;0.00;;;;;;;;;;1718182;28;20208;-71
2022/01/27 02:42:53;;;;;;;0.03;0.03;;;;;;;;;;1718448;28;20620;-71
2022/01/27 02:43:45;;;;;;;0.13;0.13;;;;;;;;;;1721906;28;20291;-71
2022/01/27 02:44:38;;;;;;;0.03;0.03;;;;;;;;;;1723267;28;20588;-71
2022/01/27 02:45:33;;;;;;;0.00;0.00;;;;;;;;;;1719226;28;20259;-71
2022/01/27 02:46:26;;;;;;;0.00;0.00;;;;;;;;;;1723464;28;20576;-71
2022/01/27 02:47:19;;;;;;;0.05;0.05;;;;;;;;;;1721065;28;20328;-71
2022/01/27 02:48:12;;;;;;;0.00;0.00;;;;;;;;;;1721287;28;20205;-71
2022/01/27 02:49:04;;;;;;;0.00;0.00;;;;;;;;;;1724182;28;20221;-71
2022/01/27 02:49:56;;;;;;;0.10;0.10;;;;;;;;;;1719397;28;21249;-71
2022/01/27 02:50:47;;;;;;;0.00;0.00;;;;;;;;;;1722444;28;20339;-71
2022/01/27 02:51:40;;;;;;;0.10;0.10;;;;;;;;;;1721571;28;20196;-71
2022/01/27 02:52:32;;;;;;;0.00;0.00;;;;;;;;;;1725443;28;20200;-71
2022/01/27 02:53:24;;;;;;;0.00;0.00;;;;;;;;;;1720036;28;20361;-71
2022/01/27 02:54:15;;;;;;;0.05;0.05;;;;;;;;;;1725627;28;20208;-71
2022/01/27 02:55:08;;;;;;;0.10;0.10;;;;;;;;;;1720533;28;20204;-71
2022/01/27 02:55:59;;;;;;;0.00;0.00;;;;;;;;;;1722717;28;20301;-71
2022/01/27 02:56:51;;;;;;;0.00;0.00;;;;;;;;;;1720289;28;20576;-71
2022/01/27 02:57:43;;;;;;;0.00;0.00;;;;;;;;;;1725426;28;20471;-71
2022/01/27 02:58:35;;;;;;;0.00;0.00;;;;;;;;;;1720753;28;20340;-71
2022/01/27 02:59:26;;;;;;;0.00;0.00;;;;;;;;;;1724653;28;20205;-71
2022/01/27 03:00:19;;;;;;;0.10;0.10;;;;;;;;;;1720380;28;20644;-71
2022/01/27 03:01:11;;;;;;;0.10;0.10;;;;;;;;;;1723492;28;20231;-71
2022/01/27 03:02:03;;;;;;;0.00;0.00;;;;;;;;;;1717735;28;20806;-71
2022/01/27 03:02:54;;;;;;;0.03;0.03;;;;;;;;;;1717951;28;20275;-71
2022/01/27 03:03:46;;;;;;;0.10;0.10;;;;;;;;;;1719550;28;20509;-71
2022/01/27 03:04:38;;;;;;;0.00;0.00;;;;;;;;;;1718474;28;20264;-71
2022/01/27 03:05:30;;;;;;;0.10;0.10;;;;;;;;;;1720880;28;20230;-71
2022/01/27 03:06:21;;;;;;;0.08;0.08;;;;;;;;;;1723510;28;20192;-71
2022/01/27 03:07:15;;;;;;;0.00;0.00;;;;;;;;;;1722723;28;20542;-71
2022/01/27 03:08:06;;;;;;;0.00;0.00;;;;;;;;;;1721482;28;20209;-71
2022/01/27 03:09:00;;;;;;;0.00;0.00;;;;;;;;;;1722917;28;20269;-71
2022/01/27 03:09:51;;;;;;;0.00;0.00;;;;;;;;;;1720938;28;20209;-71
2022/01/27 03:10:45;;;;;;;0.00;0.00;;;;;;;;;;1721727;28;20227;-71
2022/01/27 03:11:39;;;;;;;0.00;0.00;;;;;;;;;;1720498;28;20213;-71
2022/01/27 03:12:32;;;;;;;0.05;0.05;;;;;;;;;;1724793;28;20547;-71
2022/01/27 03:13:23;;;;;;;0.00;0.00;;;;;;;;;;1719497;28;20205;-71
2022/01/27 03:14:16;;;;;;;0.00;0.00;;;;;;;;;;1711705;28;20209;-71
2022/01/27 03:15:09;;;;;;;0.10;0.10;;;;;;;;;;1716258;28;20209;-71
2022/01/27 03:16:05;;;;;;;0.10;0.10;;;;;;;;;;1724083;28;20235;-71
2022/01/27 03:16:58;;;;;;;0.05;0.05;;;;;;;;;;1718083;28;20643;-71
2022/01/27 03:17:50;;;;;;;0.00;0.00;;;;;;;;;;1718049;28;20262;-71
2022/01/27 03:18:41;;;;;;;0.00;0.00;;;;;;;;;;1720640;28;20232;-71
2022/01/27 03:19:34;;;;;;;0.03;0.03;;;;;;;;;;1724219;28;20299;-71
2022/01/27 03:20:32;;;;;;;0.10;0.10;;;;;;;;;;1718618;28;20204;-71
2022/01/27 03:21:23;;;;;;;0.10;0.10;;;;;;;;;;1722157;28;20623;-71
2022/01/27 03:22:16;;;;;;;0.00;0.00;;;;;;;;;;1718464;28;20201;-71
2022/01/27 03:23:09;;;;;;;0.08;0.08;;;;;;;;;;1718840;28;20212;-71
2022/01/27 03:24:02;;;;;;;0.00;0.00;;;;;;;;;;1723596;28;20196;-71
2022/01/27 03:24:53;;;;;;;0.03;0.03;;;;;;;;;;1720935;28;20216;-71
2022/01/27 03:25:47;;;;;;;0.05;0.05;;;;;;;;;;1722045;28;20238;-71
2022/01/27 03:26:40;;;;;;;0.10;0.10;;;;;;;;;;1719222;28;20569;-71
2022/01/27 03:27:33;;;;;;;0.15;0.15;;;;;;;;;;1724824;28;20200;-71
2022/01/27 03:28:27;;;;;;;0.00;0.00;;;;;;;;;;1718958;28;20295;-71
2022/01/27 03:29:20;;;;;;;0.00;0.00;;;;;;;;;;1725640;28;20209;-71
2022/01/27 03:30:12;;;;;;;0.00;0.00;;;;;;;;;;1718623;28;20316;-71
2022/01/27 03:31:04;;;;;;;0.00;0.00;;;;;;;;;;1724220;28;20286;-71
2022/01/27 03:31:55;;;;;;;0.10;0.10;;;;;;;;;;1719548;28;20209;-71
2022/01/27 03:32:48;;;;;;;0.00;0.00;;;;;;;;;;1724369;28;20709;-71
2022/01/27 03:33:39;;;;;;;0.00;0.00;;;;;;;;;;1719515;28;20205;-71
2022/01/27 03:34:31;;;;;;;0.00;0.00;;;;;;;;;;1724451;28;20650;-71
2022/01/27 03:35:22;;;;;;;0.00;0.00;;;;;;;;;;1719629;28;20219;-71
2022/01/27 03:36:15;;;;;;;0.00;0.00;;;;;;;;;;1723292;28;20220;-71
2022/01/27 03:37:06;;;;;;;0.00;0.00;;;;;;;;;;1718360;28;20606;-71
2022/01/27 03:38:00;;;;;;;0.00;0.00;;;;;;;;;;1718303;28;20672;-71
2022/01/27 03:38:51;;;;;;;0.10;0.10;;;;;;;;;;1717664;28;20316;-71
2022/01/27 03:39:44;;;;;;;0.10;0.10;;;;;;;;;;1718316;28;20201;-71
2022/01/27 03:40:35;;;;;;;0.00;0.00;;;;;;;;;;1716692;28;20635;-71
2022/01/27 03:41:32;;;;;;;0.00;0.00;;;;;;;;;;1717996;28;20201;-71
2022/01/27 03:42:24;;;;;;;0.10;0.10;;;;;;;;;;1718643;28;20502;-71
2022/01/27 03:43:16;;;;;;;0.10;0.10;;;;;;;;;;1715355;28;20217;-71
2022/01/27 03:44:07;;;;;;;0.00;0.00;;;;;;;;;;1718539;28;20643;-71
2022/01/27 03:44:59;;;;;;;0.00;0.00;;;;;;;;;;1716479;28;20648;-71
2022/01/27 03:45:51;;;;;;;0.00;0.00;;;;;;;;;;1715864;28;20680;-71
2022/01/27 03:46:43;;;;;;;0.00;0.00;;;;;;;;;;1717547;28;20520;-71
2022/01/27 03:47:34;;;;;;;0.00;0.00;;;;;;;;;;1717992;28;20347;-71
2022/01/27 03:48:26;;;;;;;0.10;0.10;;;;;;;;;;1718226;28;20639;-71
2022/01/27 03:49:17;;;;;;;0.00;0.00;;;;;;;;;;1718543;28;20232;-71
2022/01/27 03:50:11;;;;;;;0.17;0.17;;;;;;;;;;1717306;28;20712;-71
2022/01/27 03:51:02;;;;;;;0.10;0.10;;;;;;;;;;1723639;28;20239;-71
2022/01/27 03:51:59;;;;;;;0.00;0.00;;;;;;;;;;1717472;28;20627;-71
2022/01/27 03:52:50;;;;;;;0.00;0.00;;;;;;;;;;1718757;28;20255;-71
2022/01/27 03:53:43;;;;;;;0.00;0.00;;;;;;;;;;1717691;28;20630;-71
2022/01/27 03:54:34;;;;;;;0.10;0.10;;;;;;;;;;1718467;28;20544;-71
2022/01/27 03:55:27;;;;;;;0.20;0.20;;;;;;;;;;1720630;28;20216;-71
2022/01/27 03:56:18;;;;;;;0.00;0.00;;;;;;;;;;1723051;28;20235;-71
2022/01/27 03:57:10;;;;;;;0.08;0.08;;;;;;;;;;1722467;28;20244;-71
2022/01/27 03:58:01;;;;;;;0.00;0.00;;;;;;;;;;1722308;28;20288;-71
2022/01/27 03:58:53;;;;;;;0.10;0.10;;;;;;;;;;1722863;28;20254;-71
2022/01/27 03:59:45;;;;;;;0.00;0.00;;;;;;;;;;1722725;28;20205;-71
2022/01/27 04:00:37;;;;;;;0.00;0.00;;;;;;;;;;1720711;28;20235;-71
2022/01/27 04:01:30;;;;;;;0.00;0.00;;;;;;;;;;1721552;28;20219;-71
2022/01/27 04:02:22;;;;;;;0.00;0.00;;;;;;;;;;1724485;28;20207;-71
2022/01/27 04:03:16;;;;;;;0.00;0.00;;;;;;;;;;1721604;28;20270;-71
2022/01/27 04:04:08;;;;;;;0.10;0.10;;;;;;;;;;1724667;28;20274;-71
2022/01/27 04:04:59;;;;;;;0.00;0.00;;;;;;;;;;1721422;28;20290;-71
2022/01/27 04:05:52;;;;;;;0.10;0.10;;;;;;;;;;1723511;28;20264;-71
2022/01/27 04:06:43;;;;;;;0.00;0.00;;;;;;;;;;1720869;28;20291;-71
2022/01/27 04:07:35;;;;;;;0.10;0.10;;;;;;;;;;1719890;28;20228;-71
2022/01/27 04:08:27;;;;;;;0.10;0.10;;;;;;;;;;1719017;28;20209;-71
2022/01/27 04:09:21;;;;;;;0.10;0.10;;;;;;;;;;1719875;28;20205;-71
2022/01/27 04:10:12;;;;;;;0.00;0.00;;;;;;;;;;1717746;28;20548;-71
2022/01/27 04:11:04;;;;;;;0.00;0.00;;;;;;;;;;1726048;28;20774;-71
2022/01/27 04:11:55;;;;;;;0.00;0.00;;;;;;;;;;1720447;28;20211;-71
2022/01/27 04:12:48;;;;;;;0.03;0.03;;;;;;;;;;1725843;28;20620;-71
2022/01/27 04:13:39;;;;;;;0.00;0.00;;;;;;;;;;1721929;28;20204;-70
2022/01/27 04:14:31;;;;;;;0.10;0.10;;;;;;;;;;1725302;28;20651;-70
2022/01/27 04:15:22;;;;;;;0.00;0.00;;;;;;;;;;1714070;28;20212;-71
2022/01/27 04:16:15;;;;;;;0.03;0.03;;;;;;;;;;1723858;28;20335;-71
2022/01/27 04:17:06;;;;;;;0.00;0.00;;;;;;;;;;1723336;28;20216;-71
2022/01/27 04:17:58;;;;;;;0.00;0.00;;;;;;;;;;1723339;28;20205;-71
2022/01/27 04:18:49;;;;;;;0.00;0.00;;;;;;;;;;1721984;28;20262;-70
2022/01/27 04:19:41;;;;;;;0.05;0.05;;;;;;;;;;1724147;28;20626;-70
2022/01/27 04:20:33;;;;;;;0.00;0.00;;;;;;;;;;1722110;28;20524;-71
2022/01/27 04:21:25;;;;;;;0.10;0.10;;;;;;;;;;1724208;28;20295;-71
2022/01/27 04:22:16;;;;;;;0.10;0.10;;;;;;;;;;1722989;28;20219;-71
2022/01/27 04:23:09;;;;;;;0.10;0.10;;;;;;;;;;1723352;28;20209;-71
2022/01/27 04:24:00;;;;;;;0.00;0.00;;;;;;;;;;1724545;28;20212;-71
2022/01/27 04:24:53;;;;;;;0.00;0.00;;;;;;;;;;1722281;28;20208;-71
2022/01/27 04:25:45;;;;;;;0.20;0.20;;;;;;;;;;1723228;28;20524;-71
2022/01/27 04:26:42;;;;;;;0.00;0.00;;;;;;;;;;1721389;28;20205;-71
2022/01/27 04:27:37;;;;;;;0.10;0.10;;;;;;;;;;1726002;28;20243;-71
2022/01/27 04:28:32;;;;;;;0.00;0.00;;;;;;;;;;1719855;28;20239;-71
2022/01/27 04:29:23;;;;;;;0.00;0.00;;;;;;;;;;1726236;28;20251;-71
2022/01/27 04:30:18;;;;;;;0.10;0.10;;;;;;;;;;1718857;28;20632;-71
2022/01/27 04:31:11;;;;;;;0.00;0.00;;;;;;;;;;1724739;28;20239;-71
2022/01/27 04:32:07;;;;;;;0.10;0.10;;;;;;;;;;1721073;28;20296;-71
2022/01/27 04:33:01;;;;;;;0.00;0.00;;;;;;;;;;1718957;28;20287;-71
2022/01/27 04:33:54;;;;;;;0.10;0.10;;;;;;;;;;1723565;28;20211;-71
2022/01/27 04:34:45;;;;;;;0.10;0.10;;;;;;;;;;1723638;28;20213;-71
2022/01/27 04:35:43;;;;;;;0.10;0.10;;;;;;;;;;1721699;28;20232;-71
2022/01/27 04:36:35;;;;;;;0.03;0.03;;;;;;;;;;1721947;28;21173;-71
2022/01/27 04:37:28;;;;;;;0.00;0.00;;;;;;;;;;1725170;28;20324;-71
2022/01/27 04:38:26;;;;;;;0.00;0.00;;;;;;;;;;1720705;28;20208;-71
2022/01/27 04:39:23;;;;;;;0.05;0.05;;;;;;;;;;1712693;28;20194;-71
2022/01/27 04:40:17;;;;;;;0.10;0.10;;;;;;;;;;1720042;28;20300;-71
2022/01/27 04:41:14;;;;;;;0.10;0.10;;;;;;;;;;1724308;28;20247;-71
2022/01/27 04:42:13;;;;;;;0.10;0.10;;;;;;;;;;1722180;28;20638;-71
2022/01/27 04:43:10;;;;;;;0.00;0.00;;;;;;;;;;1719967;28;20701;-71
2022/01/27 04:44:11;;;;;;;0.00;0.00;;;;;;;;;;1724207;28;20205;-71
2022/01/27 04:45:06;;;;;;;0.00;0.00;;;;;;;;;;1722027;28;20204;-71
2022/01/27 04:46:06;;;;;;;0.10;0.10;;;;;;;;;;1710569;28;20229;-71
2022/01/27 04:47:03;;;;;;;0.10;0.10;;;;;;;;;;1718571;28;20536;-71
2022/01/27 04:48:05;;;;;;;0.10;0.10;;;;;;;;;;1718832;28;20732;-71
2022/01/27 04:49:00;;;;;;;0.00;0.00;;;;;;;;;;1719442;28;20205;-71
2022/01/27 04:49:52;;;;;;;0.10;0.10;;;;;;;;;;1719733;28;20283;-71
2022/01/27 04:50:43;;;;;;;0.10;0.10;;;;;;;;;;1722698;28;20389;-71
2022/01/27 04:51:35;;;;;;;0.00;0.00;;;;;;;;;;1721522;28;20648;-71
2022/01/27 04:52:30;;;;;;;0.00;0.00;;;;;;;;;;1725291;28;20204;-71
2022/01/27 04:53:28;;;;;;;0.10;0.10;;;;;;;;;;1719424;28;20659;-71
2022/01/27 04:54:20;;;;;;;0.00;0.00;;;;;;;;;;1719217;28;20236;-70
2022/01/27 04:55:20;;;;;;;0.00;0.00;;;;;;;;;;1718437;28;20208;-70
2022/01/27 04:56:13;;;;;;;0.00;0.00;;;;;;;;;;1724410;28;20227;-70
2022/01/27 04:57:07;;;;;;;0.10;0.10;;;;;;;;;;1723033;28;20260;-70
2022/01/27 04:58:08;;;;;;;0.10;0.10;;;;;;;;;;1723940;28;20266;-70
2022/01/27 04:59:05;;;;;;;0.00;0.00;;;;;;;;;;1724086;28;20628;-70
2022/01/27 04:59:57;;;;;;;0.05;0.05;;;;;;;;;;1721419;28;20290;-70
2022/01/27 05:00:49;;;;;;;0.03;0.03;;;;;;;;;;1716006;28;20536;-70
2022/01/27 05:01:45;;;;;;;0.00;0.00;;;;;;;;;;1722160;28;20212;-71
2022/01/27 05:02:43;;;;;;;0.00;0.00;;;;;;;;;;1718908;28;20208;-71
2022/01/27 05:03:40;;;;;;;0.35;0.35;;;;;;;;;;1721192;28;20259;-71
2022/01/27 05:04:35;;;;;;;0.00;0.00;;;;;;;;;;1725022;28;20211;-71
2022/01/27 05:05:26;;;;;;;0.10;0.10;;;;;;;;;;1713406;28;20645;-71
2022/01/27 05:06:18;;;;;;;0.03;0.03;;;;;;;;;;1723846;28;20619;-71
2022/01/27 05:07:09;;;;;;;0.10;0.10;;;;;;;;;;1723809;28;20204;-71
2022/01/27 05:08:02;;;;;;;0.10;0.10;;;;;;;;;;1723393;28;20236;-71
2022/01/27 05:08:54;;;;;;;0.00;0.00;;;;;;;;;;1723007;28;20598;-71
2022/01/27 05:09:53;;;;;;;0.00;0.00;;;;;;;;;;1723910;28;20496;-71
2022/01/27 05:10:55;;;;;;;0.00;0.00;;;;;;;;;;1722386;28;20327;-71
2022/01/27 05:11:52;;;;;;;0.10;0.10;;;;;;;;;;1720835;28;20201;-71
2022/01/27 05:12:47;;;;;;;0.00;0.00;;;;;;;;;;1725897;28;20211;-71
2022/01/27 05:13:47;;;;;;;0.05;0.05;;;;;;;;;;1722001;28;20201;-71
2022/01/27 05:14:39;;;;;;;0.10;0.10;;;;;;;;;;1723851;28;20284;-71
2022/01/27 05:15:31;;;;;;;0.00;0.00;;;;;;;;;;1721574;28;20251;-71
2022/01/27 05:16:23;;;;;;;0.03;0.03;;;;;;;;;;1723674;28;20216;-71
2022/01/27 05:17:17;;;;;;;0.00;0.00;;;;;;;;;;1722827;28;20208;-71
2022/01/27 05:18:09;;;;;;;0.10;0.10;;;;;;;;;;1722064;28;20263;-71
2022/01/27 05:19:01;;;;;;;0.00;0.00;;;;;;;;;;1724133;28;20714;-71
2022/01/27 05:19:53;;;;;;;0.00;0.00;;;;;;;;;;1722916;28;20204;-71
2022/01/27 05:20:45;;;;;;;0.00;0.00;;;;;;;;;;1722622;28;20232;-71
2022/01/27 05:21:37;;;;;;;0.00;0.00;;;;;;;;;;1722347;28;20201;-71
2022/01/27 05:22:28;;;;;;;0.00;0.00;;;;;;;;;;1725414;28;20259;-71
2022/01/27 05:23:20;;;;;;;0.00;0.00;;;;;;;;;;1721171;28;20621;-71
2022/01/27 05:24:12;;;;;;;0.00;0.00;;;;;;;;;;1725377;28;20204;-71
2022/01/27 05:25:05;;;;;;;0.05;0.05;;;;;;;;;;1721190;28;20239;-71
2022/01/27 05:25:57;;;;;;;0.00;0.00;;;;;;;;;;1704689;28;20260;-71
2022/01/27 05:26:49;;;;;;;0.10;0.10;;;;;;;;;;1710956;28;20213;-71
2022/01/27 05:27:41;;;;;;;0.00;0.00;;;;;;;;;;1712344;28;20588;-71
2022/01/27 05:28:33;;;;;;;0.00;0.00;;;;;;;;;;1711812;28;20201;-71
2022/01/27 05:29:24;;;;;;;0.10;0.10;;;;;;;;;;1711811;28;20573;-71
2022/01/27 05:30:16;;;;;;;0.00;0.00;;;;;;;;;;1712361;28;20598;-71
2022/01/27 05:31:07;;;;;;;0.00;0.00;;;;;;;;;;1724585;28;20240;-71
2022/01/27 05:32:00;;;;;;;0.00;0.00;;;;;;;;;;1720429;28;20271;-71
2022/01/27 05:32:51;;;;;;;0.00;0.00;;;;;;;;;;1718905;28;20205;-71
2022/01/27 05:33:43;;;;;;;0.00;0.00;;;;;;;;;;1722051;28;20303;-71
2022/01/27 05:34:34;;;;;;;0.00;0.00;;;;;;;;;;1724482;28;20249;-71
2022/01/27 05:35:26;;;;;;;0.00;0.00;;;;;;;;;;1720397;28;20200;-71
2022/01/27 05:36:17;;;;;;;0.00;0.00;;;;;;;;;;1723335;28;20196;-71
2022/01/27 05:37:10;;;;;;;0.00;0.00;;;;;;;;;;1723330;28;20627;-71
2022/01/27 05:38:01;;;;;;;0.00;0.00;;;;;;;;;;1723603;28;20651;-71
2022/01/27 05:38:54;;;;;;;0.00;0.00;;;;;;;;;;1723378;28;20761;-71
2022/01/27 05:39:45;;;;;;;0.00;0.00;;;;;;;;;;1723177;28;20205;-71
2022/01/27 05:40:37;;;;;;;0.00;0.00;;;;;;;;;;1721488;28;20630;-71
2022/01/27 05:41:30;;;;;;;0.00;0.00;;;;;;;;;;1722964;28;20216;-71